Time;durP1;ratioP1;P1;durP2;ratioP2;P2;SDS_P1;SDS_P2;PMS_P1;PMS_P2;Temp;Humidity;BMP_temperature;BMP_pressure;BME280_temperature;BME280_humidity;BME280_pressure;Samples;Min_cycle;Max_cycle;Signal;HPM_P1;HPM_P2
2023/04/15 00:00:51;;;;;;;7.93;3.97;;;12.70;99.90;;;;;;4975786;28;20062;-89
2023/04/15 00:03:23;;;;;;;9.52;3.60;;;13.00;99.90;;;;;;4975209;28;20019;-89
2023/04/15 00:06:07;;;;;;;9.88;3.75;;;11.80;99.90;;;;;;4975660;28;20061;-89
2023/04/15 00:08:53;;;;;;;10.10;3.97;;;11.30;99.90;;;;;;4975904;28;20113;-90
2023/04/15 00:11:19;;;;;;;5.85;3.55;;;11.70;99.90;;;;;;4975552;28;20102;-90
2023/04/15 00:14:05;;;;;;;7.10;3.85;;;12.60;99.90;;;;;;4975861;28;20063;-90
2023/04/15 00:16:30;;;;;;;6.00;3.65;;;12.60;99.90;;;;;;4975336;28;20023;-91
2023/04/15 00:19:17;;;;;;;8.20;4.18;;;12.40;99.90;;;;;;4979501;28;20030;-90
2023/04/15 00:21:43;;;;;;;9.40;3.85;;;12.50;99.90;;;;;;4981080;28;20098;-91
2023/04/15 00:24:18;;;;;;;5.13;3.95;;;11.50;99.90;;;;;;4979675;28;20113;-90
2023/04/15 00:26:44;;;;;;;10.30;5.03;;;12.80;99.90;;;;;;4980240;28;20037;-90
2023/04/15 00:29:13;;;;;;;6.47;3.55;;;12.70;99.90;;;;;;4983961;28;20030;-89
2023/04/15 00:32:05;;;;;;;5.65;4.15;;;12.60;99.90;;;;;;4978046;28;20054;-91
2023/04/15 00:34:30;;;;;;;6.13;4.50;;;11.50;99.90;;;;;;4975644;28;20492;-91
2023/04/15 00:36:56;;;;;;;4.70;3.75;;;12.70;99.90;;;;;;4975214;28;20113;-90
2023/04/15 00:39:25;;;;;;;7.55;4.30;;;12.40;99.90;;;;;;4974774;28;20031;-90
2023/04/15 00:42:06;;;;;;;6.40;4.43;;;12.40;99.90;;;;;;4975511;28;20022;-90
2023/04/15 00:44:32;;;;;;;5.70;4.20;;;11.40;99.90;;;;;;4974565;28;20224;-90
2023/04/15 00:47:13;;;;;;;10.63;4.68;;;12.50;99.90;;;;;;4975339;28;20034;-90
2023/04/15 00:49:58;;;;;;;11.13;4.40;;;12.70;99.90;;;;;;4975306;28;20022;-90
2023/04/15 00:52:23;;;;;;;8.07;4.60;;;12.60;99.90;;;;;;4974685;28;20029;-90
2023/04/15 00:55:08;;;;;;;8.90;4.50;;;12.30;99.90;;;;;;4974823;28;20031;-90
2023/04/15 00:57:35;;;;;;;7.22;4.60;;;10.40;99.90;;;;;;4974203;28;20031;-89
2023/04/15 01:00:01;;;;;;;8.60;4.63;;;11.80;99.90;;;;;;4974047;28;20433;-89
2023/04/15 01:02:42;;;;;;;11.27;4.72;;;12.00;99.90;;;;;;4974561;28;20027;-90
2023/04/15 01:05:08;;;;;;;8.63;4.70;;;11.30;99.90;;;;;;4974693;28;20027;-90
2023/04/15 01:07:46;;;;;;;5.57;4.55;;;11.30;99.90;;;;;;4980396;28;20022;-90
2023/04/15 01:10:30;;;;;;;10.27;4.68;;;12.30;99.90;;;;;;4995470;28;20044;-89
2023/04/15 01:12:56;;;;;;;7.97;5.28;;;11.90;99.90;;;;;;4985323;28;20034;-90
2023/04/15 01:15:22;;;;;;;8.65;5.00;;;12.20;99.90;;;;;;4974693;28;20052;-90
2023/04/15 01:18:04;;;;;;;7.93;4.57;;;12.10;99.90;;;;;;4974764;28;20029;-90
2023/04/15 01:20:29;;;;;;;6.32;4.88;;;12.30;99.90;;;;;;4974271;28;20186;-90
2023/04/15 01:23:13;;;;;;;6.95;5.00;;;11.40;99.90;;;;;;4974847;28;20136;-91
2023/04/15 01:25:59;;;;;;;10.75;5.65;;;12.20;99.90;;;;;;4974194;28;20550;-90
2023/04/15 01:28:26;;;;;;;15.27;4.95;;;9.90;99.90;;;;;;4974453;28;20046;-91
2023/04/15 01:31:14;;;;;;;5.90;4.78;;;11.20;99.90;;;;;;4973827;28;20023;-91
2023/04/15 01:34:01;;;;;;;8.40;5.70;;;12.40;99.90;;;;;;4954333;29;20086;-90
2023/04/15 01:36:27;;;;;;;8.48;4.95;;;10.20;99.90;;;;;;4954999;28;20068;-90
2023/04/15 01:39:02;;;;;;;10.45;6.13;;;12.10;99.90;;;;;;4954462;28;20019;-90
2023/04/15 01:41:28;;;;;;;10.75;5.88;;;11.90;99.90;;;;;;4954851;28;20090;-90
2023/04/15 01:43:54;;;;;;;9.60;5.75;;;10.70;99.90;;;;;;4977813;23;20058;-90
2023/04/15 01:46:26;;;;;;;8.18;5.03;;;11.10;99.90;;;;;;4965893;28;20035;-90
2023/04/15 01:48:52;;;;;;;8.75;5.22;;;11.20;99.90;;;;;;5028516;23;20046;-89
2023/04/15 01:51:35;;;;;;;8.55;5.40;;;11.40;99.90;;;;;;4980092;28;20034;-89
2023/04/15 01:54:01;;;;;;;9.98;5.45;;;11.70;99.90;;;;;;4981777;28;20046;-90
2023/04/15 01:56:45;;;;;;;9.88;5.13;;;11.80;99.90;;;;;;4977573;28;20065;-89
2023/04/15 01:59:10;;;;;;;11.88;6.22;;;10.30;99.90;;;;;;5036529;23;20090;-91
2023/04/15 02:01:55;;;;;;;8.98;5.93;;;11.40;99.90;;;;;;4977882;28;20143;-90
2023/04/15 02:04:20;;;;;;;7.07;5.22;;;11.30;99.90;;;;;;4977700;28;20163;-90
2023/04/15 02:06:46;;;;;;;9.50;5.75;;;10.80;99.90;;;;;;4977499;28;20083;-90
2023/04/15 02:09:33;;;;;;;7.28;5.30;;;11.10;99.90;;;;;;4977452;28;20033;-91
2023/04/15 02:11:59;;;;;;;10.38;5.43;;;10.40;99.90;;;;;;4984835;23;20058;-90
2023/04/15 02:14:32;;;;;;;9.98;5.93;;;11.20;99.90;;;;;;4977861;28;20031;-91
2023/04/15 02:17:05;;;;;;;9.77;5.40;;;11.00;99.90;;;;;;4977303;28;20037;-91
2023/04/15 02:19:49;;;;;;;8.60;5.78;;;11.80;99.90;;;;;;4977891;28;20035;-91
2023/04/15 02:22:17;;;;;;;6.50;5.50;;;11.20;99.90;;;;;;4980137;28;20034;-90
2023/04/15 02:24:43;;;;;;;5.93;4.97;;;11.20;99.90;;;;;;4985761;28;20018;-90
2023/04/15 02:27:09;;;;;;;5.80;5.03;;;10.30;99.90;;;;;;4984250;28;20031;-90
2023/04/15 02:29:47;;;;;;;7.45;5.70;;;11.00;99.90;;;;;;4978352;28;20513;-91
2023/04/15 02:32:12;;;;;;;8.93;5.63;;;10.30;99.90;;;;;;4978666;28;20023;-88
2023/04/15 02:35:04;;;;;;;7.93;5.82;;;10.10;99.90;;;;;;4978052;28;20089;-90
2023/04/15 02:37:30;;;;;;;7.32;5.53;;;10.30;99.90;;;;;;4978174;28;20019;-90
2023/04/15 02:40:14;;;;;;;8.43;5.80;;;11.20;99.90;;;;;;4977637;28;20363;-91
2023/04/15 02:42:41;;;;;;;10.38;6.40;;;9.30;99.90;;;;;;4980514;28;20053;-90
2023/04/15 02:45:26;;;;;;;7.88;5.88;;;10.10;99.90;;;;;;4979645;28;20027;-90
2023/04/15 02:47:52;;;;;;;7.00;5.55;;;11.00;99.90;;;;;;4978614;28;20043;-91
2023/04/15 02:50:39;;;;;;;8.20;6.30;;;11.00;99.90;;;;;;4976900;28;20022;-91
2023/04/15 02:53:05;;;;;;;11.40;5.03;;;11.10;99.90;;;;;;4977399;28;20031;-91
2023/04/15 02:55:31;;;;;;;6.28;5.07;;;10.80;99.90;;;;;;4993426;28;20054;-91
2023/04/15 03:00:41;;;;;;;8.55;5.47;;;10.70;99.90;;;;;;4977321;28;20134;-89
2023/04/15 03:03:07;;;;;;;6.63;5.85;;;10.70;99.90;;;;;;4976324;28;20378;-90
2023/04/15 03:05:51;;;;;;;8.50;5.40;;;11.40;99.90;;;;;;4976706;28;20105;-89
2023/04/15 03:08:16;;;;;;;6.90;6.20;;;11.20;99.90;;;;;;4976814;28;20051;-91
2023/04/15 03:13:58;;;;;;;7.32;5.80;;;10.20;99.90;;;;;;4983164;28;20062;-90
2023/04/15 03:16:24;;;;;;;8.25;6.20;;;10.70;99.90;;;;;;4982558;28;20034;-90
2023/04/15 03:18:50;;;;;;;9.40;6.75;;;10.70;99.90;;;;;;4976950;28;20118;-90
2023/04/15 03:21:31;;;;;;;9.35;6.45;;;10.70;99.90;;;;;;4975961;28;20117;-91
2023/04/15 03:23:56;;;;;;;;;;;10.40;99.90;;;;;;4976584;28;20029;-90
2023/04/15 03:26:44;;;;;;;8.23;5.40;;;10.10;99.90;;;;;;4975661;28;19906;-90
2023/04/15 03:29:09;;;;;;;8.95;6.15;;;9.50;99.90;;;;;;4976443;28;20037;-90
2023/04/15 03:31:53;;;;;;;7.43;5.95;;;10.80;99.90;;;;;;4976230;28;20019;-89
2023/04/15 03:34:19;;;;;;;7.97;5.70;;;10.20;99.90;;;;;;4999350;23;20154;-90
2023/04/15 03:37:03;;;;;;;8.20;5.78;;;9.50;99.90;;;;;;4976162;28;20169;-90
2023/04/15 03:39:28;;;;;;;10.57;6.53;;;11.00;99.90;;;;;;4975752;28;20073;-89
2023/04/15 03:42:14;;;;;;;6.43;5.75;;;10.50;99.90;;;;;;4975753;28;20027;-90
2023/04/15 03:44:40;;;;;;;6.43;5.82;;;9.50;99.90;;;;;;4896937;28;20394;-89
2023/04/15 03:47:06;;;;;;;9.88;6.07;;;10.60;99.90;;;;;;4976599;28;20034;-90
2023/04/15 03:49:50;;;;;;;10.77;6.93;;;10.90;99.90;;;;;;4975957;28;20097;-90
2023/04/15 03:52:16;;;;;;;6.63;5.72;;;10.80;99.90;;;;;;4976096;28;20026;-90
2023/04/15 03:54:41;;;;;;;8.45;5.60;;;10.30;99.90;;;;;;4976020;28;20029;-90
2023/04/15 03:57:25;;;;;;;11.57;6.30;;;10.50;99.90;;;;;;4976156;28;20026;-89
2023/04/15 03:59:50;;;;;;;6.50;5.78;;;10.10;99.90;;;;;;4975992;28;20049;-89
2023/04/15 04:02:16;;;;;;;7.18;6.13;;;10.20;99.90;;;;;;4975286;28;20026;-90
2023/04/15 04:05:03;;;;;;;9.23;5.82;;;10.30;99.90;;;;;;4975708;28;20475;-91
2023/04/15 04:07:29;;;;;;;9.48;6.03;;;10.10;99.90;;;;;;4975469;28;20363;-89
2023/04/15 04:10:07;;;;;;;8.23;6.93;;;8.70;99.90;;;;;;4975405;28;20027;-90
2023/04/15 04:12:32;;;;;;;6.20;5.60;;;9.10;99.90;;;;;;4975578;28;20045;-90
2023/04/15 04:15:12;;;;;;;9.15;6.43;;;9.60;99.90;;;;;;4975028;28;20113;-91
2023/04/15 04:17:37;;;;;;;14.07;6.43;;;10.40;99.90;;;;;;4975410;28;20400;-91
2023/04/15 04:20:24;;;;;;;6.70;5.90;;;10.20;99.90;;;;;;4975764;28;20041;-90
2023/04/15 04:22:49;;;;;;;9.32;5.40;;;9.20;99.90;;;;;;4974828;28;20023;-90
2023/04/15 04:25:33;;;;;;;9.68;6.50;;;10.10;99.90;;;;;;4975136;28;20076;-90
2023/04/15 04:27:59;;;;;;;8.55;5.93;;;10.00;99.90;;;;;;4975608;28;20109;-89
2023/04/15 04:30:25;;;;;;;7.93;6.03;;;9.30;99.90;;;;;;4974701;28;20106;-90
2023/04/15 04:32:56;;;;;;;6.50;5.90;;;9.30;99.90;;;;;;4975065;28;20054;-90
2023/04/15 04:35:27;;;;;;;7.97;6.68;;;9.40;99.90;;;;;;4974876;28;20019;-89
2023/04/15 04:38:07;;;;;;;7.40;6.00;;;9.70;99.90;;;;;;4982714;28;20065;-90
2023/04/15 04:40:48;;;;;;;7.97;6.07;;;10.50;99.90;;;;;;4984652;28;20046;-90
2023/04/15 04:43:32;;;;;;;8.63;6.30;;;10.30;99.90;;;;;;4996913;28;20023;-89
2023/04/15 04:46:11;;;;;;;9.18;5.95;;;9.20;99.90;;;;;;4985534;28;20085;-91
2023/04/15 04:48:52;;;;;;;8.52;6.75;;;9.60;99.90;;;;;;4975026;28;20105;-90
2023/04/15 04:51:22;;;;;;;7.18;6.25;;;9.40;99.90;;;;;;4974746;28;20057;-89
2023/04/15 04:54:00;;;;;;;8.73;6.85;;;10.20;99.90;;;;;;4974832;28;20059;-89
2023/04/15 04:56:44;;;;;;;9.60;6.72;;;9.00;99.90;;;;;;4974805;28;20027;-89
2023/04/15 04:59:25;;;;;;;8.07;6.57;;;9.20;99.90;;;;;;4973907;28;20486;-90
2023/04/15 05:01:56;;;;;;;8.98;6.38;;;10.00;99.90;;;;;;4974704;28;20035;-89
2023/04/15 05:04:35;;;;;;;7.75;6.10;;;9.60;99.90;;;;;;4974454;28;20023;-89
2023/04/15 05:07:01;;;;;;;9.43;6.40;;;9.40;99.90;;;;;;4974598;28;20038;-85
2023/04/15 05:09:27;;;;;;;6.95;6.25;;;10.20;99.90;;;;;;4973818;28;20026;-90
2023/04/15 05:12:05;;;;;;;6.88;6.28;;;10.30;99.90;;;;;;4974669;28;20378;-90
2023/04/15 05:14:31;;;;;;;6.47;5.65;;;9.20;99.90;;;;;;4974572;28;20057;-90
2023/04/15 05:17:12;;;;;;;7.85;6.53;;;9.20;99.90;;;;;;4974883;28;20038;-90
2023/04/15 05:19:38;;;;;;;8.05;6.30;;;10.40;99.90;;;;;;4974014;28;20034;-90
2023/04/15 05:22:22;;;;;;;8.27;6.95;;;9.20;99.90;;;;;;4974095;28;20114;-90
2023/04/15 05:24:48;;;;;;;7.07;6.38;;;9.20;99.90;;;;;;4974330;28;20034;-90
2023/04/15 05:27:23;;;;;;;7.85;6.40;;;9.10;99.90;;;;;;4973239;28;20030;-90
2023/04/15 05:30:06;;;;;;;7.10;6.40;;;10.30;99.90;;;;;;4975368;28;20438;-89
2023/04/15 05:32:34;;;;;;;8.73;6.60;;;9.10;99.90;;;;;;4984208;28;20029;-91
2023/04/15 05:35:00;;;;;;;7.55;6.20;;;9.30;99.90;;;;;;4989448;28;20093;-91
2023/04/15 05:37:26;;;;;;;10.27;7.15;;;10.30;99.90;;;;;;4984748;28;20390;-91
2023/04/15 05:40:00;;;;;;;7.07;6.28;;;10.20;99.90;;;;;;4981687;28;20073;-91
2023/04/15 05:42:26;;;;;;;13.40;6.68;;;9.30;99.90;;;;;;4984976;28;20031;-90
2023/04/15 05:44:52;;;;;;;8.20;6.72;;;10.30;99.90;;;;;;5039381;23;20061;-90
2023/04/15 05:47:17;;;;;;;8.60;6.50;;;9.30;99.90;;;;;;4982018;28;20022;-90
2023/04/15 05:49:43;;;;;;;8.63;6.90;;;9.30;99.90;;;;;;4974055;28;20081;-89
2023/04/15 05:52:08;;;;;;;6.97;6.10;;;9.50;99.90;;;;;;5032535;23;20106;-90
2023/04/15 05:54:34;;;;;;;8.10;6.25;;;9.80;99.90;;;;;;5022835;28;20041;-90
2023/04/15 05:57:00;;;;;;;8.45;6.22;;;9.90;99.90;;;;;;5023482;28;20041;-89
2023/04/15 05:59:27;;;;;;;6.88;6.18;;;10.10;99.90;;;;;;5027211;28;20026;-90
2023/04/15 06:01:52;;;;;;;8.23;6.35;;;10.20;99.90;;;;;;5024639;28;20027;-90
2023/04/15 06:04:18;;;;;;;7.35;6.65;;;10.00;99.90;;;;;;5003323;28;20026;-90
2023/04/15 06:06:44;;;;;;;8.70;6.75;;;10.10;99.90;;;;;;5001447;28;20033;-90
2023/04/15 06:09:10;;;;;;;7.38;6.70;;;10.20;99.90;;;;;;5005158;28;20029;-91
2023/04/15 06:11:35;;;;;;;9.13;6.85;;;10.20;99.90;;;;;;5015075;28;20026;-91
2023/04/15 06:14:01;;;;;;;8.52;7.10;;;10.10;99.90;;;;;;5000484;28;20030;-90
2023/04/15 06:16:39;;;;;;;8.50;6.55;;;10.20;99.90;;;;;;5000001;28;20560;-91
2023/04/15 06:19:04;;;;;;;10.10;7.57;;;11.30;99.90;;;;;;5002818;28;20065;-90
2023/04/15 06:21:42;;;;;;;9.25;7.68;;;10.10;99.90;;;;;;5002532;28;20037;-90
2023/04/15 06:24:24;;;;;;;8.57;7.75;;;11.10;99.90;;;;;;5000953;28;20343;-90
2023/04/15 06:26:50;;;;;;;8.82;7.35;;;9.70;99.90;;;;;;5000909;28;20113;-91
2023/04/15 06:29:34;;;;;;;12.18;8.02;;;9.60;99.90;;;;;;5008923;28;20049;-91
2023/04/15 06:32:17;;;;;;;8.27;7.47;;;9.60;99.90;;;;;;5025222;28;20014;-89
2023/04/15 06:34:42;;;;;;;10.07;8.30;;;8.70;99.90;;;;;;5022890;28;20041;-90
2023/04/15 06:37:10;;;;;;;11.05;8.32;;;10.60;99.90;;;;;;5038008;23;20522;-90
2023/04/15 06:39:36;;;;;;;8.48;7.68;;;10.00;99.90;;;;;;4949512;29;20043;-90
2023/04/15 06:42:02;;;;;;;9.88;8.60;;;9.80;99.90;;;;;;4938704;29;20542;-90
2023/04/15 06:44:28;;;;;;;10.73;8.80;;;9.90;99.90;;;;;;4938961;29;20036;-90
2023/04/15 06:46:54;;;;;;;11.93;8.48;;;9.80;99.90;;;;;;4938583;29;20031;-90
2023/04/15 06:49:19;;;;;;;9.23;7.85;;;9.80;99.90;;;;;;4939511;29;20023;-91
2023/04/15 06:51:45;;;;;;;9.10;7.95;;;9.80;99.90;;;;;;4938614;29;20099;-90
2023/04/15 06:54:11;;;;;;;9.70;8.60;;;9.80;99.90;;;;;;4941459;29;20111;-91
2023/04/15 06:56:36;;;;;;;11.10;8.52;;;9.80;99.90;;;;;;4939039;29;20031;-91
2023/04/15 06:59:02;;;;;;;9.48;8.63;;;9.80;99.90;;;;;;4938145;29;20288;-91
2023/04/15 07:01:28;;;;;;;10.57;8.98;;;9.80;99.90;;;;;;4938554;29;20040;-88
2023/04/15 07:03:54;;;;;;;9.85;8.88;;;9.90;99.90;;;;;;4938670;29;20078;-90
2023/04/15 07:06:20;;;;;;;10.77;9.68;;;9.80;99.90;;;;;;4937901;29;20031;-90
2023/04/15 07:08:46;;;;;;;11.55;8.45;;;10.70;99.90;;;;;;4940348;29;20391;-89
2023/04/15 07:11:11;;;;;;;13.02;8.70;;;10.00;99.90;;;;;;4952531;29;20027;-89
2023/04/15 07:13:37;;;;;;;10.63;8.77;;;10.00;99.90;;;;;;4957020;29;20023;-89
2023/04/15 07:16:03;;;;;;;11.40;9.45;;;10.10;99.90;;;;;;4956894;29;20054;-90
2023/04/15 07:18:28;;;;;;;14.10;8.68;;;10.20;99.90;;;;;;4957453;29;20471;-88
2023/04/15 07:20:55;;;;;;;12.25;9.45;;;10.20;99.90;;;;;;4957457;29;20119;-90
2023/04/15 07:23:20;;;;;;;12.10;8.73;;;10.20;99.90;;;;;;4964656;29;20111;-89
2023/04/15 07:25:46;;;;;;;11.30;9.10;;;10.20;99.90;;;;;;4957409;29;20023;-89
2023/04/15 07:28:12;;;;;;;9.20;8.30;;;11.40;99.90;;;;;;4957309;29;20020;-90
2023/04/15 07:30:37;;;;;;;8.95;8.13;;;10.40;99.90;;;;;;4957302;29;20496;-89
2023/04/15 07:33:03;;;;;;;10.20;8.98;;;10.50;99.90;;;;;;4957282;29;20047;-90
2023/04/15 07:35:28;;;;;;;9.40;8.50;;;10.50;99.90;;;;;;4956732;29;20019;-90
2023/04/15 07:37:54;;;;;;;11.05;8.27;;;10.50;99.90;;;;;;4956962;28;20058;-91
2023/04/15 07:40:21;;;;;;;10.13;9.13;;;10.50;99.90;;;;;;4955499;29;20047;-89
2023/04/15 07:42:48;;;;;;;10.32;9.20;;;10.50;99.90;;;;;;4955602;29;20099;-89
2023/04/15 07:45:13;;;;;;;12.70;8.60;;;10.50;99.90;;;;;;4955130;29;20027;-89
2023/04/15 07:47:40;;;;;;;9.00;7.50;;;10.50;99.90;;;;;;4955828;28;20024;-89
2023/04/15 07:50:07;;;;;;;10.32;8.57;;;10.60;99.90;;;;;;4956297;29;20031;-92
2023/04/15 07:52:37;;;;;;;11.80;8.10;;;10.70;99.90;;;;;;4957483;29;20031;-88
2023/04/15 07:55:05;;;;;;;9.75;7.60;;;10.80;99.90;;;;;;4954981;29;20035;-89
2023/04/15 07:57:30;;;;;;;9.70;8.13;;;10.70;99.90;;;;;;4937411;29;20034;-91
2023/04/15 07:59:56;;;;;;;9.73;7.93;;;10.70;99.90;;;;;;4943846;29;20035;-89
2023/04/15 08:02:21;;;;;;;8.43;7.40;;;10.80;99.90;;;;;;4953974;29;20028;-88
2023/04/15 08:04:47;;;;;;;10.43;7.22;;;10.90;99.90;;;;;;4955521;29;20030;-89
2023/04/15 08:07:13;;;;;;;8.30;7.45;;;10.90;99.90;;;;;;4954644;29;20023;-90
2023/04/15 08:09:38;;;;;;;7.97;6.95;;;11.00;99.90;;;;;;4955066;29;20387;-91
2023/04/15 08:12:04;;;;;;;10.70;7.22;;;11.00;99.90;;;;;;4955141;29;20547;-89
2023/04/15 08:14:33;;;;;;;7.13;6.45;;;11.10;99.90;;;;;;4965011;23;20507;-88
2023/04/15 08:17:10;;;;;;;6.68;6.07;;;12.20;99.90;;;;;;4969753;28;20051;-89
2023/04/15 08:22:04;;;;;;;6.28;5.72;;;11.20;99.90;;;;;;4981595;28;20403;-89
2023/04/15 08:24:45;;;;;;;6.88;5.35;;;11.10;99.90;;;;;;4982552;28;20027;-89
2023/04/15 08:27:29;;;;;;;8.25;5.70;;;10.80;99.90;;;;;;4973468;28;20054;-88
2023/04/15 08:30:18;;;;;;;6.72;6.10;;;10.40;99.90;;;;;;4974921;28;20027;-89
2023/04/15 08:32:46;;;;;;;11.57;6.88;;;11.20;99.90;;;;;;4971717;28;20050;-89
2023/04/15 08:35:14;;;;;;;9.57;6.75;;;12.40;99.90;;;;;;4974540;28;20034;-88
2023/04/15 08:37:40;;;;;;;7.03;6.32;;;11.90;99.90;;;;;;4975113;28;20027;-90
2023/04/15 08:40:11;;;;;;;10.00;6.32;;;11.40;99.90;;;;;;4974845;28;20508;-88
2023/04/15 08:46:10;;;;;;;9.25;6.80;;;11.50;99.90;;;;;;4985044;28;20046;-89
2023/04/15 08:52:36;;;;;;;12.45;5.93;;;11.00;99.90;;;;;;4979870;28;20041;-87
2023/04/15 08:55:16;;;;;;;;;;;12.80;99.90;;;;;;4974530;28;20124;-87
2023/04/15 08:57:42;;;;;;;9.43;7.30;;;12.20;99.90;;;;;;4973939;28;19906;-87
2023/04/15 09:00:24;;;;;;;16.65;7.03;;;12.20;99.90;;;;;;4973819;28;20049;-87
2023/04/15 09:05:36;;;;;;;7.20;5.68;;;12.50;99.90;;;;;;4972439;28;20044;-88
2023/04/15 09:08:20;;;;;;;7.68;6.00;;;12.60;99.90;;;;;;4972458;28;20109;-87
2023/04/15 09:10:45;;;;;;;8.40;4.47;;;12.20;99.90;;;;;;4972383;28;20031;-87
2023/04/15 09:13:26;;;;;;;7.65;4.90;;;12.00;99.90;;;;;;4972293;28;20447;-88
2023/04/15 09:15:52;;;;;;;;;;;11.60;99.90;;;;;;4973189;28;20082;-87
2023/04/15 09:18:34;;;;;;;5.75;5.13;;;12.30;99.90;;;;;;4973475;28;19906;-87
2023/04/15 09:21:22;;;;;;;7.35;5.32;;;12.80;99.90;;;;;;4973621;28;20041;-87
2023/04/15 09:24:15;;;;;;;9.45;6.60;;;12.80;99.90;;;;;;4974519;28;20023;-87
2023/04/15 09:26:42;;;;;;;8.32;5.88;;;11.90;99.90;;;;;;4974131;28;20027;-88
2023/04/15 09:29:30;;;;;;;5.85;5.15;;;12.90;99.90;;;;;;4974179;28;20031;-87
2023/04/15 09:31:55;;;;;;;5.47;4.97;;;10.50;99.90;;;;;;4974228;28;20034;-87
2023/04/15 09:34:42;;;;;;;15.68;5.47;;;12.70;99.90;;;;;;4973408;28;20027;-87
2023/04/15 09:37:09;;;;;;;14.45;5.60;;;12.00;99.90;;;;;;4973658;28;20034;-87
2023/04/15 09:39:53;;;;;;;22.80;4.70;;;13.20;99.90;;;;;;4973498;28;20058;-88
2023/04/15 09:45:12;;;;;;;7.80;4.63;;;13.10;99.90;;;;;;4973442;28;20138;-87
2023/04/15 09:48:30;;;;;;;8.60;5.57;;;13.30;99.90;;;;;;4973458;28;20039;-88
2023/04/15 09:51:00;;;;;;;8.43;5.78;;;12.00;99.90;;;;;;4970436;28;20042;-85
2023/04/15 09:56:10;;;;;;;7.35;5.30;;;12.30;99.90;;;;;;4972007;28;20121;-88
2023/04/15 09:58:37;;;;;;;7.05;5.40;;;12.20;99.90;;;;;;4975600;28;20053;-89
2023/04/15 10:01:12;;;;;;;7.45;5.22;;;13.20;99.90;;;;;;5001753;28;20039;-90
2023/04/15 10:03:41;;;;;;;6.45;3.33;;;13.20;99.90;;;;;;5006911;28;20027;-89
2023/04/15 10:06:08;;;;;;;4.53;2.90;;;12.90;99.90;;;;;;4962612;28;20038;-88
2023/04/15 10:08:40;;;;;;;3.58;3.10;;;12.30;99.90;;;;;;5000101;28;20061;-89
2023/04/15 10:11:28;;;;;;;4.93;3.50;;;13.20;99.90;;;;;;4995071;28;20022;-88
2023/04/15 10:14:07;;;;;;;9.57;3.63;;;12.50;99.90;;;;;;4983999;28;20025;-87
2023/04/15 10:16:48;;;;;;;5.93;4.10;;;12.90;99.90;;;;;;4992219;28;20018;-88
2023/04/15 10:19:35;;;;;;;5.47;4.10;;;12.40;99.90;;;;;;4980567;28;20031;-90
2023/04/15 10:22:14;;;;;;;4.22;3.15;;;12.40;99.90;;;;;;5019533;23;20505;-92
2023/04/15 10:25:01;;;;;;;5.35;4.28;;;13.40;99.90;;;;;;5018070;28;20026;-90
2023/04/15 10:27:50;;;;;;;7.72;4.07;;;13.20;99.90;;;;;;5016787;28;20381;-89
2023/04/15 10:30:22;;;;;;;3.83;2.97;;;12.20;99.90;;;;;;5017294;28;20022;-89
2023/04/15 10:32:49;;;;;;;5.20;3.33;;;13.40;99.90;;;;;;5017619;28;20029;-89
2023/04/15 10:35:33;;;;;;;4.10;2.78;;;13.70;99.90;;;;;;5015909;28;20026;-88
2023/04/15 10:38:21;;;;;;;5.03;2.20;;;12.50;99.90;;;;;;5016641;28;20025;-88
2023/04/15 10:40:46;;;;;;;5.18;2.95;;;12.40;99.90;;;;;;5015847;28;20038;-88
2023/04/15 10:43:27;;;;;;;5.55;4.18;;;13.20;99.90;;;;;;5015480;28;20044;-88
2023/04/15 10:46:09;;;;;;;4.13;3.75;;;13.70;99.90;;;;;;5015471;28;20370;-89
2023/04/15 10:48:35;;;;;;;3.50;3.20;;;13.50;99.90;;;;;;5004188;28;20030;-87
2023/04/15 10:51:25;;;;;;;4.20;3.03;;;12.50;99.90;;;;;;4995423;28;20385;-88
2023/04/15 10:54:07;;;;;;;3.22;2.55;;;12.60;99.90;;;;;;4996805;28;20042;-88
2023/04/15 10:56:33;;;;;;;3.30;3.00;;;12.60;99.90;;;;;;4996927;28;20033;-87
2023/04/15 10:59:17;;;;;;;4.30;3.63;;;13.40;99.90;;;;;;4997041;28;20394;-92
2023/04/15 11:01:58;;;;;;;3.67;3.38;;;12.60;99.90;;;;;;5001130;28;20137;-90
2023/04/15 11:04:56;;;;;;;4.93;3.40;;;12.70;99.90;;;;;;5006086;28;20019;-90
2023/04/15 11:07:40;;;;;;;4.30;3.85;;;12.60;99.90;;;;;;4998794;28;20031;-90
2023/04/15 11:10:31;;;;;;;8.35;3.60;;;12.60;99.90;;;;;;4996656;28;20029;-89
2023/04/15 11:12:59;;;;;;;5.97;3.47;;;12.80;99.90;;;;;;5006468;28;20046;-90
2023/04/15 11:15:35;;;;;;;4.57;3.53;;;12.60;99.90;;;;;;5005425;23;20097;-90
2023/04/15 11:18:16;;;;;;;5.18;4.28;;;12.60;99.90;;;;;;5035073;28;20045;-88
2023/04/15 11:20:47;;;;;;;24.10;5.78;;;12.60;99.90;;;;;;5036079;28;20065;-93
2023/04/15 11:23:14;;;;;;;6.85;3.80;;;12.50;99.90;;;;;;5031761;28;20113;-89
2023/04/15 11:25:40;;;;;;;5.75;5.20;;;12.60;99.90;;;;;;5034376;28;20029;-89
2023/04/15 11:28:06;;;;;;;6.15;5.45;;;12.60;99.90;;;;;;5014982;28;20351;-90
2023/04/15 11:30:36;;;;;;;5.07;4.53;;;12.70;99.90;;;;;;5034487;28;20051;-89
2023/04/15 11:33:07;;;;;;;4.95;4.35;;;13.20;99.90;;;;;;5038370;28;20037;-89
2023/04/15 11:35:35;;;;;;;6.07;4.53;;;12.70;99.90;;;;;;5035934;28;20034;-91
2023/04/15 11:38:04;;;;;;;13.68;5.10;;;12.80;99.90;;;;;;5034878;28;20029;-89
2023/04/15 11:40:32;;;;;;;6.50;4.53;;;12.80;99.90;;;;;;5034675;28;20056;-90
2023/04/15 11:43:12;;;;;;;8.27;5.05;;;12.70;99.90;;;;;;5036107;28;20079;-89
2023/04/15 11:45:56;;;;;;;4.38;3.97;;;12.80;99.90;;;;;;5043371;28;20013;-90
2023/04/15 11:48:27;;;;;;;4.80;4.30;;;12.90;99.90;;;;;;5051450;28;20045;-90
2023/04/15 11:50:59;;;;;;;13.73;4.60;;;12.80;99.90;;;;;;5040735;28;20033;-89
2023/04/15 11:53:42;;;;;;;14.38;4.88;;;12.70;99.90;;;;;;5032298;28;20099;-90
2023/04/15 11:56:09;;;;;;;7.18;4.22;;;12.80;99.90;;;;;;5031671;28;20017;-90
2023/04/15 11:58:37;;;;;;;6.68;4.05;;;12.90;99.90;;;;;;5031428;28;20481;-89
2023/04/15 12:01:03;;;;;;;6.05;4.30;;;12.90;99.90;;;;;;5030933;28;20037;-89
2023/04/15 12:03:31;;;;;;;4.85;4.38;;;12.90;99.90;;;;;;5031936;28;20409;-90
2023/04/15 12:06:19;;;;;;;5.57;4.60;;;12.90;99.90;;;;;;5032955;28;20036;-90
2023/04/15 12:09:06;;;;;;;8.05;3.75;;;12.90;99.90;;;;;;5033381;28;20034;-90
2023/04/15 12:11:38;;;;;;;6.85;3.95;;;12.80;99.90;;;;;;5034328;28;20071;-89
2023/04/15 12:14:27;;;;;;;4.45;3.38;;;12.90;99.90;;;;;;5034120;28;20037;-89
2023/04/15 12:17:06;;;;;;;4.38;3.97;;;12.90;99.90;;;;;;5034085;28;20061;-90
2023/04/15 12:19:37;;;;;;;6.00;4.43;;;13.00;99.90;;;;;;5044065;28;20030;-90
2023/04/15 12:22:05;;;;;;;6.30;4.05;;;13.40;99.90;;;;;;5034490;28;20112;-91
2023/04/15 12:24:33;;;;;;;4.10;3.80;;;13.10;99.90;;;;;;5033751;28;20029;-90
2023/04/15 12:27:02;;;;;;;4.78;4.05;;;13.10;99.90;;;;;;5034308;28;20041;-90
2023/04/15 12:29:29;;;;;;;4.65;3.97;;;13.20;99.90;;;;;;5033843;28;20068;-90
2023/04/15 12:31:55;;;;;;;3.45;3.15;;;13.20;99.90;;;;;;5034245;28;20056;-90
2023/04/15 12:34:30;;;;;;;5.85;3.40;;;13.20;99.90;;;;;;5032992;28;20064;-89
2023/04/15 12:36:57;;;;;;;30.95;5.25;;;13.20;99.90;;;;;;5033525;28;20025;-90
2023/04/15 12:39:27;;;;;;;6.03;2.88;;;13.20;99.90;;;;;;5033551;28;20079;-89
2023/04/15 12:41:53;;;;;;;3.15;2.63;;;13.30;99.90;;;;;;5033741;28;20520;-89
2023/04/15 12:44:23;;;;;;;3.85;2.80;;;13.20;99.90;;;;;;5033618;28;20071;-90
2023/04/15 12:46:49;;;;;;;5.03;3.72;;;13.30;99.90;;;;;;5033570;28;20021;-91
2023/04/15 12:49:18;;;;;;;11.18;3.92;;;13.30;99.90;;;;;;5032776;28;20168;-90
2023/04/15 12:51:44;;;;;;;8.45;3.28;;;13.40;99.90;;;;;;5033624;28;20040;-90
2023/04/15 12:54:10;;;;;;;7.35;4.47;;;13.40;99.90;;;;;;5033416;28;20546;-90
2023/04/15 12:56:35;;;;;;;4.70;3.38;;;13.40;99.90;;;;;;5033340;28;20029;-89
2023/04/15 12:59:01;;;;;;;3.10;2.72;;;13.50;99.90;;;;;;5033321;28;20021;-89
2023/04/15 13:01:27;;;;;;;4.75;2.60;;;13.50;99.90;;;;;;5033457;28;20033;-89
2023/04/15 13:03:52;;;;;;;10.50;2.40;;;13.90;99.90;;;;;;5033123;28;20036;-90
2023/04/15 13:06:18;;;;;;;8.02;2.67;;;13.70;99.90;;;;;;5033304;28;20109;-90
2023/04/15 13:08:43;;;;;;;3.20;2.85;;;13.60;99.90;;;;;;5033571;28;20021;-90
2023/04/15 13:11:09;;;;;;;2.80;2.50;;;13.60;99.90;;;;;;5032771;28;20025;-90
2023/04/15 13:13:35;;;;;;;2.63;2.33;;;13.70;99.90;;;;;;5033103;28;20030;-90
2023/04/15 13:16:01;;;;;;;2.70;1.98;;;13.70;99.90;;;;;;5033027;28;20082;-90
2023/04/15 13:18:26;;;;;;;5.05;2.20;;;13.60;99.90;;;;;;5032846;28;20022;-89
2023/04/15 13:20:53;;;;;;;3.75;1.95;;;13.60;99.90;;;;;;5032731;28;20486;-90
2023/04/15 13:23:19;;;;;;;7.60;2.38;;;13.60;99.90;;;;;;5033498;28;20028;-90
2023/04/15 13:25:44;;;;;;;2.78;2.40;;;13.70;99.90;;;;;;5032764;28;20025;-90
2023/04/15 13:28:11;;;;;;;5.47;2.58;;;13.60;99.90;;;;;;5032483;28;20017;-89
2023/04/15 13:30:37;;;;;;;1.95;1.75;;;13.60;99.90;;;;;;5033004;28;20091;-89
2023/04/15 13:33:03;;;;;;;2.15;1.95;;;13.60;99.90;;;;;;5032475;28;20026;-90
2023/04/15 13:35:29;;;;;;;2.78;1.88;;;13.60;99.90;;;;;;5032830;28;20037;-89
2023/04/15 13:37:55;;;;;;;3.42;2.13;;;13.60;99.90;;;;;;5032827;28;20026;-90